sensor_id;sensor_type;location;lat;lon;timestamp;P1;durP1;ratioP1;P2;durP2;ratioP2
28455;SDS011;15682;56.742;38.866;2022-08-14T00:00:31;11.3;;;3.7;;
28455;SDS011;15682;56.742;38.866;2022-08-14T00:02:31;8.9;;;3.6;;
28455;SDS011;15682;56.742;38.866;2022-08-14T00:04:32;9.0;;;3.7;;
28455;SDS011;15682;56.742;38.866;2022-08-14T00:06:32;8.7;;;3.5;;
28455;SDS011;15682;56.742;38.866;2022-08-14T00:08:32;6.0;;;3.2;;
28455;SDS011;15682;56.742;38.866;2022-08-14T00:10:32;6.6;;;3.2;;
28455;SDS011;15682;56.742;38.866;2022-08-14T00:12:34;9.7;;;3.3;;
28455;SDS011;15682;56.742;38.866;2022-08-14T00:14:33;7.8;;;3.6;;
28455;SDS011;15682;56.742;38.866;2022-08-14T00:16:33;7.9;;;3.5;;
28455;SDS011;15682;56.742;38.866;2022-08-14T00:18:33;8.5;;;3.5;;
28455;SDS011;15682;56.742;38.866;2022-08-14T00:20:35;10.3;;;3.7;;
28455;SDS011;15682;56.742;38.866;2022-08-14T00:22:34;6.9;;;3.2;;
28455;SDS011;15682;56.742;38.866;2022-08-14T00:24:34;7.5;;;3.6;;
28455;SDS011;15682;56.742;38.866;2022-08-14T00:26:35;6.6;;;3.2;;
28455;SDS011;15682;56.742;38.866;2022-08-14T00:28:35;10.6;;;3.8;;
28455;SDS011;15682;56.742;38.866;2022-08-14T00:30:35;8.6;;;3.6;;
28455;SDS011;15682;56.742;38.866;2022-08-14T00:32:36;10.8;;;3.4;;
28455;SDS011;15682;56.742;38.866;2022-08-14T00:34:36;9.0;;;3.6;;
28455;SDS011;15682;56.742;38.866;2022-08-14T00:36:36;8.8;;;3.5;;
28455;SDS011;15682;56.742;38.866;2022-08-14T00:38:37;11.7;;;3.5;;
28455;SDS011;15682;56.742;38.866;2022-08-14T00:40:37;8.1;;;3.4;;
28455;SDS011;15682;56.742;38.866;2022-08-14T00:42:37;11.0;;;3.6;;
28455;SDS011;15682;56.742;38.866;2022-08-14T00:44:37;10.3;;;3.6;;
28455;SDS011;15682;56.742;38.866;2022-08-14T00:46:38;10.1;;;3.4;;
28455;SDS011;15682;56.742;38.866;2022-08-14T00:48:38;10.7;;;3.4;;
28455;SDS011;15682;56.742;38.866;2022-08-14T00:50:38;7.9;;;3.4;;
28455;SDS011;15682;56.742;38.866;2022-08-14T00:52:39;8.9;;;3.5;;
28455;SDS011;15682;56.742;38.866;2022-08-14T00:54:39;8.8;;;3.7;;
28455;SDS011;15682;56.742;38.866;2022-08-14T00:56:39;13.1;;;3.7;;
28455;SDS011;15682;56.742;38.866;2022-08-14T00:58:39;6.4;;;3.3;;
28455;SDS011;15682;56.742;38.866;2022-08-14T01:00:40;6.9;;;3.4;;
28455;SDS011;15682;56.742;38.866;2022-08-14T01:02:41;9.8;;;3.5;;
28455;SDS011;15682;56.742;38.866;2022-08-14T01:04:40;10.8;;;3.5;;
28455;SDS011;15682;56.742;38.866;2022-08-14T01:06:41;6.3;;;3.1;;
28455;SDS011;15682;56.742;38.866;2022-08-14T01:08:43;9.5;;;3.6;;
28455;SDS011;15682;56.742;38.866;2022-08-14T01:10:41;9.2;;;3.7;;
28455;SDS011;15682;56.742;38.866;2022-08-14T01:12:42;7.7;;;3.4;;
28455;SDS011;15682;56.742;38.866;2022-08-14T01:14:42;10.8;;;3.8;;
28455;SDS011;15682;56.742;38.866;2022-08-14T01:16:42;9.6;;;3.5;;
28455;SDS011;15682;56.742;38.866;2022-08-14T01:18:43;7.9;;;3.6;;
28455;SDS011;15682;56.742;38.866;2022-08-14T01:20:43;10.6;;;3.4;;
28455;SDS011;15682;56.742;38.866;2022-08-14T01:22:43;13.7;;;3.7;;
28455;SDS011;15682;56.742;38.866;2022-08-14T01:24:43;9.9;;;3.7;;
28455;SDS011;15682;56.742;38.866;2022-08-14T01:26:44;13.3;;;3.7;;
28455;SDS011;15682;56.742;38.866;2022-08-14T01:28:44;9.5;;;4.0;;
28455;SDS011;15682;56.742;38.866;2022-08-14T01:30:44;9.9;;;3.6;;
28455;SDS011;15682;56.742;38.866;2022-08-14T01:32:45;7.6;;;3.4;;
28455;SDS011;15682;56.742;38.866;2022-08-14T01:34:46;11.4;;;3.5;;
28455;SDS011;15682;56.742;38.866;2022-08-14T01:36:45;7.4;;;3.4;;
28455;SDS011;15682;56.742;38.866;2022-08-14T01:38:46;10.3;;;3.5;;
28455;SDS011;15682;56.742;38.866;2022-08-14T01:40:46;8.2;;;3.8;;
28455;SDS011;15682;56.742;38.866;2022-08-14T01:42:46;12.1;;;3.8;;
28455;SDS011;15682;56.742;38.866;2022-08-14T01:44:46;12.2;;;4.1;;
28455;SDS011;15682;56.742;38.866;2022-08-14T01:46:47;6.8;;;3.3;;
28455;SDS011;15682;56.742;38.866;2022-08-14T01:48:47;6.4;;;3.3;;
28455;SDS011;15682;56.742;38.866;2022-08-14T01:50:47;7.3;;;3.3;;
28455;SDS011;15682;56.742;38.866;2022-08-14T01:52:48;6.8;;;3.2;;
28455;SDS011;15682;56.742;38.866;2022-08-14T01:54:48;7.5;;;3.4;;
28455;SDS011;15682;56.742;38.866;2022-08-14T01:56:49;11.2;;;3.4;;
28455;SDS011;15682;56.742;38.866;2022-08-14T01:58:49;7.8;;;3.5;;
28455;SDS011;15682;56.742;38.866;2022-08-14T02:00:50;7.5;;;3.4;;
28455;SDS011;15682;56.742;38.866;2022-08-14T02:02:49;7.0;;;3.5;;
28455;SDS011;15682;56.742;38.866;2022-08-14T02:04:50;8.2;;;3.4;;
28455;SDS011;15682;56.742;38.866;2022-08-14T02:06:50;6.3;;;3.5;;
28455;SDS011;15682;56.742;38.866;2022-08-14T02:08:50;8.4;;;3.5;;
28455;SDS011;15682;56.742;38.866;2022-08-14T02:10:51;9.2;;;3.7;;
28455;SDS011;15682;56.742;38.866;2022-08-14T02:12:51;11.2;;;4.0;;
28455;SDS011;15682;56.742;38.866;2022-08-14T02:14:51;8.6;;;3.7;;
28455;SDS011;15682;56.742;38.866;2022-08-14T02:16:51;11.2;;;3.6;;
28455;SDS011;15682;56.742;38.866;2022-08-14T02:18:53;11.7;;;4.0;;
28455;SDS011;15682;56.742;38.866;2022-08-14T02:20:52;8.4;;;3.5;;
28455;SDS011;15682;56.742;38.866;2022-08-14T02:22:52;12.1;;;4.9;;
28455;SDS011;15682;56.742;38.866;2022-08-14T02:24:52;8.8;;;4.0;;
28455;SDS011;15682;56.742;38.866;2022-08-14T02:26:53;6.7;;;3.3;;
28455;SDS011;15682;56.742;38.866;2022-08-14T02:28:54;8.8;;;3.7;;
28455;SDS011;15682;56.742;38.866;2022-08-14T02:30:53;13.1;;;3.9;;
28455;SDS011;15682;56.742;38.866;2022-08-14T02:32:54;9.6;;;3.7;;
28455;SDS011;15682;56.742;38.866;2022-08-14T02:34:54;8.5;;;3.5;;
28455;SDS011;15682;56.742;38.866;2022-08-14T02:36:55;12.6;;;3.8;;
28455;SDS011;15682;56.742;38.866;2022-08-14T02:38:55;13.6;;;3.7;;
28455;SDS011;15682;56.742;38.866;2022-08-14T02:40:55;10.2;;;4.1;;
28455;SDS011;15682;56.742;38.866;2022-08-14T02:42:55;11.8;;;4.0;;
28455;SDS011;15682;56.742;38.866;2022-08-14T02:44:55;12.7;;;4.4;;
28455;SDS011;15682;56.742;38.866;2022-08-14T02:46:56;14.7;;;4.3;;
28455;SDS011;15682;56.742;38.866;2022-08-14T02:48:56;12.0;;;4.0;;
28455;SDS011;15682;56.742;38.866;2022-08-14T02:50:57;10.3;;;3.7;;
28455;SDS011;15682;56.742;38.866;2022-08-14T02:52:57;11.6;;;3.4;;
28455;SDS011;15682;56.742;38.866;2022-08-14T02:54:57;9.8;;;3.7;;
28455;SDS011;15682;56.742;38.866;2022-08-14T02:56:57;8.9;;;3.8;;
28455;SDS011;15682;56.742;38.866;2022-08-14T02:58:58;8.9;;;3.6;;
28455;SDS011;15682;56.742;38.866;2022-08-14T03:00:58;9.3;;;3.3;;
28455;SDS011;15682;56.742;38.866;2022-08-14T03:02:58;15.1;;;3.5;;
28455;SDS011;15682;56.742;38.866;2022-08-14T03:04:58;10.5;;;3.4;;
28455;SDS011;15682;56.742;38.866;2022-08-14T03:06:59;17.0;;;3.4;;
28455;SDS011;15682;56.742;38.866;2022-08-14T03:08:59;14.3;;;3.3;;
28455;SDS011;15682;56.742;38.866;2022-08-14T03:11:00;9.2;;;3.3;;
28455;SDS011;15682;56.742;38.866;2022-08-14T03:13:00;10.7;;;3.2;;
28455;SDS011;15682;56.742;38.866;2022-08-14T03:15:00;7.2;;;3.4;;
28455;SDS011;15682;56.742;38.866;2022-08-14T03:17:00;7.0;;;3.1;;
28455;SDS011;15682;56.742;38.866;2022-08-14T03:19:01;12.3;;;3.1;;
28455;SDS011;15682;56.742;38.866;2022-08-14T03:21:03;9.1;;;3.6;;
28455;SDS011;15682;56.742;38.866;2022-08-14T03:23:01;12.4;;;3.3;;
28455;SDS011;15682;56.742;38.866;2022-08-14T03:25:02;7.5;;;2.8;;
28455;SDS011;15682;56.742;38.866;2022-08-14T03:27:02;15.7;;;3.0;;
28455;SDS011;15682;56.742;38.866;2022-08-14T03:29:02;11.4;;;2.9;;
28455;SDS011;15682;56.742;38.866;2022-08-14T03:31:03;9.4;;;2.8;;
28455;SDS011;15682;56.742;38.866;2022-08-14T03:33:03;11.5;;;2.9;;
28455;SDS011;15682;56.742;38.866;2022-08-14T03:35:04;14.4;;;3.0;;
28455;SDS011;15682;56.742;38.866;2022-08-14T03:37:04;16.7;;;3.1;;
28455;SDS011;15682;56.742;38.866;2022-08-14T03:39:05;8.8;;;2.9;;
28455;SDS011;15682;56.742;38.866;2022-08-14T03:41:04;7.9;;;2.9;;
28455;SDS011;15682;56.742;38.866;2022-08-14T03:43:05;10.3;;;3.1;;
28455;SDS011;15682;56.742;38.866;2022-08-14T03:45:06;10.4;;;3.1;;
28455;SDS011;15682;56.742;38.866;2022-08-14T03:47:06;27.5;;;4.1;;
28455;SDS011;15682;56.742;38.866;2022-08-14T03:49:06;8.9;;;3.1;;
28455;SDS011;15682;56.742;38.866;2022-08-14T03:51:07;7.1;;;3.1;;
28455;SDS011;15682;56.742;38.866;2022-08-14T03:53:07;9.8;;;3.0;;
28455;SDS011;15682;56.742;38.866;2022-08-14T03:55:08;7.0;;;2.8;;
28455;SDS011;15682;56.742;38.866;2022-08-14T03:57:08;10.5;;;3.2;;
28455;SDS011;15682;56.742;38.866;2022-08-14T03:59:08;9.5;;;3.2;;
28455;SDS011;15682;56.742;38.866;2022-08-14T04:01:08;13.4;;;3.0;;
28455;SDS011;15682;56.742;38.866;2022-08-14T04:03:09;11.0;;;3.1;;
28455;SDS011;15682;56.742;38.866;2022-08-14T04:05:09;9.4;;;2.5;;
28455;SDS011;15682;56.742;38.866;2022-08-14T04:07:10;13.1;;;2.7;;
28455;SDS011;15682;56.742;38.866;2022-08-14T04:09:10;10.8;;;2.9;;
28455;SDS011;15682;56.742;38.866;2022-08-14T04:11:11;8.0;;;2.7;;
28455;SDS011;15682;56.742;38.866;2022-08-14T04:13:11;11.9;;;2.6;;
28455;SDS011;15682;56.742;38.866;2022-08-14T04:15:12;10.4;;;3.1;;
28455;SDS011;15682;56.742;38.866;2022-08-14T04:17:12;9.3;;;2.7;;
28455;SDS011;15682;56.742;38.866;2022-08-14T04:19:13;10.1;;;2.8;;
28455;SDS011;15682;56.742;38.866;2022-08-14T04:21:14;14.4;;;3.0;;
28455;SDS011;15682;56.742;38.866;2022-08-14T04:23:14;10.0;;;2.6;;
28455;SDS011;15682;56.742;38.866;2022-08-14T04:25:14;13.5;;;2.7;;
28455;SDS011;15682;56.742;38.866;2022-08-14T04:27:15;8.4;;;2.4;;
28455;SDS011;15682;56.742;38.866;2022-08-14T04:29:15;5.4;;;2.4;;
28455;SDS011;15682;56.742;38.866;2022-08-14T04:31:16;8.4;;;3.2;;
28455;SDS011;15682;56.742;38.866;2022-08-14T04:33:16;8.7;;;2.9;;
28455;SDS011;15682;56.742;38.866;2022-08-14T04:35:17;8.8;;;2.8;;
28455;SDS011;15682;56.742;38.866;2022-08-14T04:37:19;5.1;;;2.5;;
28455;SDS011;15682;56.742;38.866;2022-08-14T04:39:18;7.7;;;2.6;;
28455;SDS011;15682;56.742;38.866;2022-08-14T04:41:19;9.3;;;2.6;;
28455;SDS011;15682;56.742;38.866;2022-08-14T04:43:19;6.7;;;2.3;;
28455;SDS011;15682;56.742;38.866;2022-08-14T04:45:20;8.8;;;2.3;;
28455;SDS011;15682;56.742;38.866;2022-08-14T04:47:20;12.5;;;2.6;;
28455;SDS011;15682;56.742;38.866;2022-08-14T04:49:21;10.5;;;2.6;;
28455;SDS011;15682;56.742;38.866;2022-08-14T04:51:22;11.5;;;2.4;;
28455;SDS011;15682;56.742;38.866;2022-08-14T04:53:23;7.7;;;2.3;;
28455;SDS011;15682;56.742;38.866;2022-08-14T04:55:23;11.0;;;2.4;;
28455;SDS011;15682;56.742;38.866;2022-08-14T04:57:23;11.8;;;2.4;;
28455;SDS011;15682;56.742;38.866;2022-08-14T04:59:24;17.8;;;2.6;;
28455;SDS011;15682;56.742;38.866;2022-08-14T05:01:25;9.8;;;2.5;;
28455;SDS011;15682;56.742;38.866;2022-08-14T05:03:26;11.1;;;2.4;;
28455;SDS011;15682;56.742;38.866;2022-08-14T05:05:26;10.2;;;2.3;;
28455;SDS011;15682;56.742;38.866;2022-08-14T05:07:27;6.7;;;2.3;;
28455;SDS011;15682;56.742;38.866;2022-08-14T05:09:27;9.2;;;2.4;;
28455;SDS011;15682;56.742;38.866;2022-08-14T05:11:28;8.8;;;2.0;;
28455;SDS011;15682;56.742;38.866;2022-08-14T05:13:29;9.9;;;2.3;;
28455;SDS011;15682;56.742;38.866;2022-08-14T05:15:30;9.4;;;2.2;;
28455;SDS011;15682;56.742;38.866;2022-08-14T05:17:30;11.9;;;2.3;;
28455;SDS011;15682;56.742;38.866;2022-08-14T05:19:31;14.7;;;2.6;;
28455;SDS011;15682;56.742;38.866;2022-08-14T05:21:31;7.0;;;2.3;;
28455;SDS011;15682;56.742;38.866;2022-08-14T05:23:33;7.3;;;2.2;;
28455;SDS011;15682;56.742;38.866;2022-08-14T05:25:33;7.8;;;2.4;;
28455;SDS011;15682;56.742;38.866;2022-08-14T05:27:33;9.4;;;2.3;;
28455;SDS011;15682;56.742;38.866;2022-08-14T05:29:34;8.5;;;2.5;;
28455;SDS011;15682;56.742;38.866;2022-08-14T05:31:35;10.4;;;2.2;;
28455;SDS011;15682;56.742;38.866;2022-08-14T05:33:35;8.7;;;2.1;;
28455;SDS011;15682;56.742;38.866;2022-08-14T05:35:36;9.6;;;2.3;;
28455;SDS011;15682;56.742;38.866;2022-08-14T05:37:37;9.5;;;2.2;;
28455;SDS011;15682;56.742;38.866;2022-08-14T05:39:38;10.3;;;2.8;;
28455;SDS011;15682;56.742;38.866;2022-08-14T05:41:38;17.0;;;2.8;;
28455;SDS011;15682;56.742;38.866;2022-08-14T05:43:39;20.5;;;3.2;;
28455;SDS011;15682;56.742;38.866;2022-08-14T05:45:40;16.4;;;2.6;;
28455;SDS011;15682;56.742;38.866;2022-08-14T05:47:40;9.7;;;2.6;;
28455;SDS011;15682;56.742;38.866;2022-08-14T05:49:41;15.5;;;2.3;;
28455;SDS011;15682;56.742;38.866;2022-08-14T05:51:42;18.8;;;2.8;;
28455;SDS011;15682;56.742;38.866;2022-08-14T05:53:42;11.6;;;2.3;;
28455;SDS011;15682;56.742;38.866;2022-08-14T05:55:43;13.3;;;2.4;;
28455;SDS011;15682;56.742;38.866;2022-08-14T05:57:45;7.0;;;2.0;;
28455;SDS011;15682;56.742;38.866;2022-08-14T05:59:44;10.1;;;2.4;;
28455;SDS011;15682;56.742;38.866;2022-08-14T06:01:45;9.6;;;2.2;;
28455;SDS011;15682;56.742;38.866;2022-08-14T06:03:46;13.0;;;2.4;;
28455;SDS011;15682;56.742;38.866;2022-08-14T06:05:48;5.8;;;1.9;;
28455;SDS011;15682;56.742;38.866;2022-08-14T06:07:47;6.1;;;2.0;;
28455;SDS011;15682;56.742;38.866;2022-08-14T06:09:48;18.4;;;2.3;;
28455;SDS011;15682;56.742;38.866;2022-08-14T06:11:49;8.3;;;1.9;;
28455;SDS011;15682;56.742;38.866;2022-08-14T06:13:50;7.6;;;1.9;;
28455;SDS011;15682;56.742;38.866;2022-08-14T06:15:50;9.7;;;2.2;;
28455;SDS011;15682;56.742;38.866;2022-08-14T06:17:52;13.3;;;2.3;;
28455;SDS011;15682;56.742;38.866;2022-08-14T06:19:52;5.4;;;1.8;;
28455;SDS011;15682;56.742;38.866;2022-08-14T06:21:53;6.2;;;1.8;;
28455;SDS011;15682;56.742;38.866;2022-08-14T06:23:53;6.9;;;2.0;;
28455;SDS011;15682;56.742;38.866;2022-08-14T06:25:54;6.7;;;1.7;;
28455;SDS011;15682;56.742;38.866;2022-08-14T06:27:55;11.1;;;1.8;;
28455;SDS011;15682;56.742;38.866;2022-08-14T06:29:55;7.9;;;1.8;;
28455;SDS011;15682;56.742;38.866;2022-08-14T06:31:56;7.3;;;1.6;;
28455;SDS011;15682;56.742;38.866;2022-08-14T06:33:57;3.9;;;1.4;;
28455;SDS011;15682;56.742;38.866;2022-08-14T06:35:58;7.6;;;1.7;;
28455;SDS011;15682;56.742;38.866;2022-08-14T06:37:59;6.9;;;1.9;;
28455;SDS011;15682;56.742;38.866;2022-08-14T06:39:59;7.3;;;1.7;;
28455;SDS011;15682;56.742;38.866;2022-08-14T06:42:00;9.1;;;1.9;;
28455;SDS011;15682;56.742;38.866;2022-08-14T06:44:01;8.7;;;1.8;;
28455;SDS011;15682;56.742;38.866;2022-08-14T06:46:01;7.5;;;1.9;;
28455;SDS011;15682;56.742;38.866;2022-08-14T06:48:02;7.6;;;2.3;;
28455;SDS011;15682;56.742;38.866;2022-08-14T06:50:03;7.6;;;1.8;;
28455;SDS011;15682;56.742;38.866;2022-08-14T06:52:03;9.8;;;2.0;;
28455;SDS011;15682;56.742;38.866;2022-08-14T06:54:04;6.2;;;2.3;;
28455;SDS011;15682;56.742;38.866;2022-08-14T06:56:05;9.4;;;2.2;;
28455;SDS011;15682;56.742;38.866;2022-08-14T06:58:09;6.8;;;1.9;;
28455;SDS011;15682;56.742;38.866;2022-08-14T07:00:07;7.1;;;1.8;;
28455;SDS011;15682;56.742;38.866;2022-08-14T07:02:07;8.5;;;1.9;;
28455;SDS011;15682;56.742;38.866;2022-08-14T07:04:08;6.1;;;1.8;;
28455;SDS011;15682;56.742;38.866;2022-08-14T07:06:11;10.2;;;2.3;;
28455;SDS011;15682;56.742;38.866;2022-08-14T07:08:11;9.6;;;2.0;;
28455;SDS011;15682;56.742;38.866;2022-08-14T07:10:10;6.6;;;2.1;;
28455;SDS011;15682;56.742;38.866;2022-08-14T07:12:11;7.0;;;2.0;;
28455;SDS011;15682;56.742;38.866;2022-08-14T07:14:12;9.1;;;2.3;;
28455;SDS011;15682;56.742;38.866;2022-08-14T07:16:12;8.6;;;1.8;;
28455;SDS011;15682;56.742;38.866;2022-08-14T07:18:13;12.4;;;1.9;;
28455;SDS011;15682;56.742;38.866;2022-08-14T07:20:14;6.9;;;1.7;;
28455;SDS011;15682;56.742;38.866;2022-08-14T07:22:15;10.4;;;2.5;;
28455;SDS011;15682;56.742;38.866;2022-08-14T07:24:15;7.7;;;1.8;;
28455;SDS011;15682;56.742;38.866;2022-08-14T07:26:16;13.3;;;2.1;;
28455;SDS011;15682;56.742;38.866;2022-08-14T07:28:17;8.6;;;1.9;;
28455;SDS011;15682;56.742;38.866;2022-08-14T07:30:18;8.2;;;1.9;;
28455;SDS011;15682;56.742;38.866;2022-08-14T07:32:18;8.4;;;2.0;;
28455;SDS011;15682;56.742;38.866;2022-08-14T07:34:19;12.3;;;2.2;;
28455;SDS011;15682;56.742;38.866;2022-08-14T07:36:20;5.8;;;1.8;;
28455;SDS011;15682;56.742;38.866;2022-08-14T07:38:21;5.6;;;1.6;;
28455;SDS011;15682;56.742;38.866;2022-08-14T07:40:21;6.8;;;1.7;;
28455;SDS011;15682;56.742;38.866;2022-08-14T07:42:21;7.3;;;1.8;;
28455;SDS011;15682;56.742;38.866;2022-08-14T07:44:22;6.8;;;1.7;;
28455;SDS011;15682;56.742;38.866;2022-08-14T07:46:23;9.0;;;2.1;;
28455;SDS011;15682;56.742;38.866;2022-08-14T07:48:23;19.2;;;2.4;;
28455;SDS011;15682;56.742;38.866;2022-08-14T07:50:24;5.6;;;1.6;;
28455;SDS011;15682;56.742;38.866;2022-08-14T07:52:25;5.4;;;1.8;;
28455;SDS011;15682;56.742;38.866;2022-08-14T07:54:25;9.3;;;1.9;;
28455;SDS011;15682;56.742;38.866;2022-08-14T07:56:26;5.8;;;2.2;;
28455;SDS011;15682;56.742;38.866;2022-08-14T07:58:27;6.0;;;1.9;;
28455;SDS011;15682;56.742;38.866;2022-08-14T08:00:27;5.9;;;1.8;;
28455;SDS011;15682;56.742;38.866;2022-08-14T08:02:29;8.8;;;2.0;;
28455;SDS011;15682;56.742;38.866;2022-08-14T08:04:29;9.7;;;2.0;;
28455;SDS011;15682;56.742;38.866;2022-08-14T08:06:29;10.3;;;2.0;;
28455;SDS011;15682;56.742;38.866;2022-08-14T08:08:30;8.7;;;2.0;;
28455;SDS011;15682;56.742;38.866;2022-08-14T08:10:30;29.0;;;3.5;;
28455;SDS011;15682;56.742;38.866;2022-08-14T08:12:31;25.8;;;3.4;;
28455;SDS011;15682;56.742;38.866;2022-08-14T08:14:32;23.3;;;3.0;;
28455;SDS011;15682;56.742;38.866;2022-08-14T08:16:32;12.3;;;2.1;;
28455;SDS011;15682;56.742;38.866;2022-08-14T08:18:33;8.2;;;2.3;;
28455;SDS011;15682;56.742;38.866;2022-08-14T08:20:35;16.0;;;2.8;;
28455;SDS011;15682;56.742;38.866;2022-08-14T08:22:34;8.8;;;2.4;;
28455;SDS011;15682;56.742;38.866;2022-08-14T08:24:35;7.1;;;2.2;;
28455;SDS011;15682;56.742;38.866;2022-08-14T08:26:35;10.4;;;2.5;;
28455;SDS011;15682;56.742;38.866;2022-08-14T08:28:36;30.7;;;3.2;;
28455;SDS011;15682;56.742;38.866;2022-08-14T08:30:37;30.4;;;5.1;;
28455;SDS011;15682;56.742;38.866;2022-08-14T08:32:38;13.1;;;3.1;;
28455;SDS011;15682;56.742;38.866;2022-08-14T08:34:43;9.1;;;2.9;;
28455;SDS011;15682;56.742;38.866;2022-08-14T08:36:38;10.4;;;2.6;;
28455;SDS011;15682;56.742;38.866;2022-08-14T08:38:39;9.4;;;2.2;;
28455;SDS011;15682;56.742;38.866;2022-08-14T08:40:40;11.7;;;2.2;;
28455;SDS011;15682;56.742;38.866;2022-08-14T08:42:40;8.6;;;2.1;;
28455;SDS011;15682;56.742;38.866;2022-08-14T08:44:40;11.9;;;2.4;;
28455;SDS011;15682;56.742;38.866;2022-08-14T08:46:42;7.5;;;1.9;;
28455;SDS011;15682;56.742;38.866;2022-08-14T08:48:43;10.9;;;2.3;;
28455;SDS011;15682;56.742;38.866;2022-08-14T08:50:42;10.3;;;2.3;;
28455;SDS011;15682;56.742;38.866;2022-08-14T08:52:45;16.1;;;2.7;;
28455;SDS011;15682;56.742;38.866;2022-08-14T08:54:51;15.6;;;2.7;;
28455;SDS011;15682;56.742;38.866;2022-08-14T08:56:45;21.6;;;2.6;;
28455;SDS011;15682;56.742;38.866;2022-08-14T08:58:45;6.1;;;1.8;;
28455;SDS011;15682;56.742;38.866;2022-08-14T09:00:46;4.6;;;2.1;;
28455;SDS011;15682;56.742;38.866;2022-08-14T09:02:51;6.8;;;2.1;;
28455;SDS011;15682;56.742;38.866;2022-08-14T09:04:46;6.1;;;2.0;;
28455;SDS011;15682;56.742;38.866;2022-08-14T09:06:48;4.9;;;1.8;;
28455;SDS011;15682;56.742;38.866;2022-08-14T09:08:47;4.1;;;1.7;;
28455;SDS011;15682;56.742;38.866;2022-08-14T09:10:48;6.3;;;1.8;;
28455;SDS011;15682;56.742;38.866;2022-08-14T09:12:49;7.6;;;2.0;;
28455;SDS011;15682;56.742;38.866;2022-08-14T09:14:49;7.6;;;1.6;;
28455;SDS011;15682;56.742;38.866;2022-08-14T09:16:50;7.8;;;2.0;;
28455;SDS011;15682;56.742;38.866;2022-08-14T09:18:50;14.7;;;2.2;;
28455;SDS011;15682;56.742;38.866;2022-08-14T09:20:52;12.6;;;2.2;;
28455;SDS011;15682;56.742;38.866;2022-08-14T09:22:52;11.1;;;2.6;;
28455;SDS011;15682;56.742;38.866;2022-08-14T09:24:52;11.2;;;2.0;;
28455;SDS011;15682;56.742;38.866;2022-08-14T09:26:53;13.8;;;3.2;;
28455;SDS011;15682;56.742;38.866;2022-08-14T09:28:53;8.7;;;2.3;;
28455;SDS011;15682;56.742;38.866;2022-08-14T09:30:54;6.2;;;2.3;;
28455;SDS011;15682;56.742;38.866;2022-08-14T09:33:06;15.7;;;2.8;;
28455;SDS011;15682;56.742;38.866;2022-08-14T09:34:56;9.0;;;2.3;;
28455;SDS011;15682;56.742;38.866;2022-08-14T09:37:01;10.2;;;2.1;;
28455;SDS011;15682;56.742;38.866;2022-08-14T09:39:00;11.0;;;3.0;;
28455;SDS011;15682;56.742;38.866;2022-08-14T09:40:58;15.2;;;3.3;;
28455;SDS011;15682;56.742;38.866;2022-08-14T09:43:01;12.7;;;3.5;;
28455;SDS011;15682;56.742;38.866;2022-08-14T09:45:02;8.4;;;3.1;;
28455;SDS011;15682;56.742;38.866;2022-08-14T09:46:58;7.8;;;2.7;;
28455;SDS011;15682;56.742;38.866;2022-08-14T09:48:59;7.3;;;2.1;;
28455;SDS011;15682;56.742;38.866;2022-08-14T09:50:59;7.7;;;1.9;;
28455;SDS011;15682;56.742;38.866;2022-08-14T09:53:02;7.3;;;2.2;;
28455;SDS011;15682;56.742;38.866;2022-08-14T09:55:01;9.4;;;2.9;;
28455;SDS011;15682;56.742;38.866;2022-08-14T09:57:01;10.0;;;2.4;;
28455;SDS011;15682;56.742;38.866;2022-08-14T09:59:09;13.1;;;2.7;;
28455;SDS011;15682;56.742;38.866;2022-08-14T10:01:07;9.6;;;3.2;;
28455;SDS011;15682;56.742;38.866;2022-08-14T10:03:03;11.2;;;3.4;;
28455;SDS011;15682;56.742;38.866;2022-08-14T10:05:04;5.4;;;2.5;;
28455;SDS011;15682;56.742;38.866;2022-08-14T10:07:04;10.4;;;2.8;;
28455;SDS011;15682;56.742;38.866;2022-08-14T10:09:05;8.3;;;2.7;;
28455;SDS011;15682;56.742;38.866;2022-08-14T10:11:11;4.4;;;1.7;;
28455;SDS011;15682;56.742;38.866;2022-08-14T10:13:06;8.0;;;2.0;;
28455;SDS011;15682;56.742;38.866;2022-08-14T10:15:13;5.4;;;1.8;;
28455;SDS011;15682;56.742;38.866;2022-08-14T10:17:07;13.9;;;2.1;;
28455;SDS011;15682;56.742;38.866;2022-08-14T10:19:09;9.2;;;1.9;;
28455;SDS011;15682;56.742;38.866;2022-08-14T10:21:09;8.4;;;1.6;;
28455;SDS011;15682;56.742;38.866;2022-08-14T10:23:09;6.2;;;1.6;;
28455;SDS011;15682;56.742;38.866;2022-08-14T10:25:10;7.7;;;2.2;;
28455;SDS011;15682;56.742;38.866;2022-08-14T10:27:12;15.9;;;2.6;;
28455;SDS011;15682;56.742;38.866;2022-08-14T10:29:10;10.9;;;2.5;;
28455;SDS011;15682;56.742;38.866;2022-08-14T10:31:19;4.6;;;1.7;;
28455;SDS011;15682;56.742;38.866;2022-08-14T10:33:21;21.1;;;3.7;;
28455;SDS011;15682;56.742;38.866;2022-08-14T10:35:13;35.9;;;3.7;;
28455;SDS011;15682;56.742;38.866;2022-08-14T10:37:13;61.7;;;4.2;;
28455;SDS011;15682;56.742;38.866;2022-08-14T10:39:14;7.6;;;2.7;;
28455;SDS011;15682;56.742;38.866;2022-08-14T10:41:15;41.3;;;3.3;;
28455;SDS011;15682;56.742;38.866;2022-08-14T10:43:15;17.1;;;2.8;;
28455;SDS011;15682;56.742;38.866;2022-08-14T10:45:16;12.1;;;2.3;;
28455;SDS011;15682;56.742;38.866;2022-08-14T10:47:16;9.8;;;2.3;;
28455;SDS011;15682;56.742;38.866;2022-08-14T10:49:17;14.4;;;2.9;;
28455;SDS011;15682;56.742;38.866;2022-08-14T10:51:22;5.3;;;2.0;;
28455;SDS011;15682;56.742;38.866;2022-08-14T10:55:20;10.6;;;1.8;;
28455;SDS011;15682;56.742;38.866;2022-08-14T10:57:19;6.9;;;1.9;;
28455;SDS011;15682;56.742;38.866;2022-08-14T10:59:19;11.8;;;2.0;;
28455;SDS011;15682;56.742;38.866;2022-08-14T11:01:28;26.7;;;2.6;;
28455;SDS011;15682;56.742;38.866;2022-08-14T11:03:20;29.0;;;2.7;;
28455;SDS011;15682;56.742;38.866;2022-08-14T11:05:22;66.7;;;4.8;;
28455;SDS011;15682;56.742;38.866;2022-08-14T11:07:21;8.9;;;1.7;;
28455;SDS011;15682;56.742;38.866;2022-08-14T11:09:22;14.6;;;2.0;;
28455;SDS011;15682;56.742;38.866;2022-08-14T11:11:23;17.8;;;2.3;;
28455;SDS011;15682;56.742;38.866;2022-08-14T11:13:24;13.1;;;2.1;;
28455;SDS011;15682;56.742;38.866;2022-08-14T11:15:24;9.7;;;2.7;;
28455;SDS011;15682;56.742;38.866;2022-08-14T11:17:24;8.9;;;2.1;;
28455;SDS011;15682;56.742;38.866;2022-08-14T11:19:25;5.2;;;1.8;;
28455;SDS011;15682;56.742;38.866;2022-08-14T11:21:25;8.2;;;2.1;;
28455;SDS011;15682;56.742;38.866;2022-08-14T11:23:27;6.2;;;1.9;;
28455;SDS011;15682;56.742;38.866;2022-08-14T11:25:28;10.7;;;2.2;;
28455;SDS011;15682;56.742;38.866;2022-08-14T11:27:28;6.8;;;2.0;;
28455;SDS011;15682;56.742;38.866;2022-08-14T11:29:28;7.8;;;2.4;;
28455;SDS011;15682;56.742;38.866;2022-08-14T11:31:28;6.9;;;2.2;;
28455;SDS011;15682;56.742;38.866;2022-08-14T11:33:29;5.9;;;1.8;;
28455;SDS011;15682;56.742;38.866;2022-08-14T11:35:29;9.8;;;2.6;;
28455;SDS011;15682;56.742;38.866;2022-08-14T11:37:30;7.7;;;2.8;;
28455;SDS011;15682;56.742;38.866;2022-08-14T11:39:31;13.1;;;3.4;;
28455;SDS011;15682;56.742;38.866;2022-08-14T11:41:33;13.3;;;2.1;;
28455;SDS011;15682;56.742;38.866;2022-08-14T11:43:36;5.6;;;1.7;;
28455;SDS011;15682;56.742;38.866;2022-08-14T11:45:33;11.8;;;2.3;;
28455;SDS011;15682;56.742;38.866;2022-08-14T11:47:33;36.8;;;3.8;;
28455;SDS011;15682;56.742;38.866;2022-08-14T11:49:33;9.1;;;1.8;;
28455;SDS011;15682;56.742;38.866;2022-08-14T11:51:34;10.0;;;2.5;;
28455;SDS011;15682;56.742;38.866;2022-08-14T11:53:35;17.0;;;2.5;;
28455;SDS011;15682;56.742;38.866;2022-08-14T11:55:36;17.7;;;2.8;;
28455;SDS011;15682;56.742;38.866;2022-08-14T11:57:36;14.0;;;2.5;;
28455;SDS011;15682;56.742;38.866;2022-08-14T11:59:36;12.2;;;2.5;;
28455;SDS011;15682;56.742;38.866;2022-08-14T12:01:37;12.3;;;3.3;;
28455;SDS011;15682;56.742;38.866;2022-08-14T12:03:38;13.2;;;3.8;;
28455;SDS011;15682;56.742;38.866;2022-08-14T12:05:38;10.3;;;3.8;;
28455;SDS011;15682;56.742;38.866;2022-08-14T12:07:46;14.1;;;4.0;;
28455;SDS011;15682;56.742;38.866;2022-08-14T12:09:39;7.0;;;2.4;;
28455;SDS011;15682;56.742;38.866;2022-08-14T12:11:40;21.6;;;4.2;;
28455;SDS011;15682;56.742;38.866;2022-08-14T12:13:40;7.2;;;2.6;;